Time;durP1;ratioP1;P1;durP2;ratioP2;P2;SDS_P1;SDS_P2;PMS_P1;PMS_P2;Temp;Humidity;BMP_temperature;BMP_pressure;BME280_temperature;BME280_humidity;BME280_pressure;Samples;Min_cycle;Max_cycle;Signal;HPM_P1;HPM_P2
2021/06/16 00:01:30;;;;;;;3.75;1.80;;;23.90;52.60;;;;;;5092906;28;20640;-61
2021/06/16 00:03:55;;;;;;;1.88;1.38;;;23.90;52.60;;;;;;5092196;28;20192;-61
2021/06/16 00:06:21;;;;;;;2.92;1.33;;;23.80;52.50;;;;;;5092996;28;20671;-62
2021/06/16 00:08:46;;;;;;;3.42;1.75;;;23.80;52.80;;;;;;5092613;28;20173;-62
2021/06/16 00:11:12;;;;;;;3.65;1.52;;;23.80;52.90;;;;;;5092158;28;20259;-62
2021/06/16 00:13:37;;;;;;;2.58;1.17;;;23.80;52.90;;;;;;5092628;28;20242;-62
2021/06/16 00:16:03;;;;;;;2.45;1.42;;;23.80;52.90;;;;;;5092791;28;20605;-62
2021/06/16 00:18:29;;;;;;;1.48;1.30;;;23.80;52.60;;;;;;5092075;28;20166;-62
2021/06/16 00:20:54;;;;;;;2.17;1.40;;;23.80;52.70;;;;;;5092450;28;20206;-61
2021/06/16 00:23:20;;;;;;;3.55;1.80;;;23.80;52.60;;;;;;5093011;28;20358;-62
2021/06/16 00:25:48;;;;;;;3.90;1.60;;;23.80;52.90;;;;;;5091526;28;20288;-62
2021/06/16 00:28:13;;;;;;;2.85;1.63;;;23.80;52.80;;;;;;5092936;28;20184;-61
2021/06/16 00:30:39;;;;;;;2.35;1.40;;;23.80;52.90;;;;;;5092586;28;20178;-62
2021/06/16 00:33:05;;;;;;;3.38;1.40;;;23.80;52.90;;;;;;5092100;28;20671;-62
2021/06/16 00:35:30;;;;;;;2.30;1.40;;;23.80;53.00;;;;;;5092486;28;20701;-62
2021/06/16 00:37:57;;;;;;;3.55;1.42;;;23.80;52.90;;;;;;5092209;28;20174;-62
2021/06/16 00:40:24;;;;;;;2.78;1.48;;;23.80;53.00;;;;;;5092873;28;20718;-61
2021/06/16 00:42:50;;;;;;;3.10;1.70;;;23.80;53.00;;;;;;5092392;28;20182;-62
2021/06/16 00:45:17;;;;;;;1.63;1.45;;;23.70;52.80;;;;;;5091949;28;20217;-61
2021/06/16 00:47:43;;;;;;;1.38;1.20;;;23.70;52.90;;;;;;5092415;28;20180;-62
2021/06/16 00:50:10;;;;;;;2.60;1.38;;;23.80;53.00;;;;;;5092583;28;20205;-62
2021/06/16 00:52:35;;;;;;;3.53;1.58;;;23.70;53.00;;;;;;5091778;28;20178;-61
2021/06/16 00:55:01;;;;;;;2.90;1.48;;;23.70;53.10;;;;;;5092585;28;20174;-62
2021/06/16 00:57:26;;;;;;;1.73;1.40;;;23.70;53.10;;;;;;5092518;28;20181;-62
2021/06/16 01:00:09;;;;;;;2.78;1.60;;;23.70;53.10;;;;;;5091426;28;20628;-62
2021/06/16 01:03:03;;;;;;;2.22;1.35;;;23.70;53.10;;;;;;5092134;28;20659;-62
2021/06/16 01:05:38;;;;;;;3.80;1.77;;;23.70;53.20;;;;;;5075167;28;20218;-62
2021/06/16 01:08:03;;;;;;;2.85;1.40;;;23.70;53.10;;;;;;5073805;28;20635;-62
2021/06/16 01:10:33;;;;;;;2.08;1.55;;;23.70;53.20;;;;;;5078215;28;20189;-62
2021/06/16 01:13:06;;;;;;;2.00;1.45;;;23.70;53.20;;;;;;5078339;28;20178;-62
2021/06/16 01:15:44;;;;;;;2.38;1.50;;;23.70;53.20;;;;;;5077921;28;20650;-62
2021/06/16 01:18:09;;;;;;;2.63;1.70;;;23.70;53.20;;;;;;5096120;28;20261;-62
2021/06/16 01:20:41;;;;;;;3.35;1.30;;;23.70;53.00;;;;;;5076874;28;20269;-62
2021/06/16 01:23:35;;;;;;;2.47;1.52;;;23.70;53.00;;;;;;5095955;28;20190;-62
2021/06/16 01:26:01;;;;;;;2.60;1.35;;;23.70;53.10;;;;;;5095545;28;20222;-61
2021/06/16 01:28:37;;;;;;;2.53;1.60;;;23.70;53.20;;;;;;5095311;28;20188;-61
2021/06/16 01:31:03;;;;;;;1.85;1.20;;;23.70;53.20;;;;;;5095681;28;20181;-61
2021/06/16 01:33:29;;;;;;;1.88;1.35;;;23.60;53.20;;;;;;5095644;28;20181;-62
2021/06/16 01:35:55;;;;;;;3.63;1.60;;;23.60;53.20;;;;;;5094955;28;20189;-62
2021/06/16 01:38:21;;;;;;;2.88;1.80;;;23.70;53.10;;;;;;5095555;28;20174;-61
2021/06/16 01:40:47;;;;;;;3.35;1.63;;;23.60;53.00;;;;;;5077173;28;20176;-61
2021/06/16 01:43:13;;;;;;;1.52;1.30;;;23.60;53.00;;;;;;5076874;28;20173;-62
2021/06/16 01:45:39;;;;;;;2.72;1.30;;;23.60;53.00;;;;;;5077050;28;20213;-62
2021/06/16 01:48:06;;;;;;;2.42;1.60;;;23.60;52.90;;;;;;5077529;28;20170;-62
2021/06/16 01:50:32;;;;;;;2.47;1.30;;;23.60;52.80;;;;;;5076480;28;20181;-62
2021/06/16 01:52:57;;;;;;;2.13;1.38;;;23.60;52.70;;;;;;5095297;28;20527;-61
2021/06/16 01:55:23;;;;;;;3.97;1.52;;;23.60;52.80;;;;;;5076297;28;20185;-62
2021/06/16 01:57:50;;;;;;;2.80;1.73;;;23.60;52.90;;;;;;5076975;28;20166;-61
2021/06/16 02:00:17;;;;;;;2.10;1.30;;;23.60;52.90;;;;;;5077267;28;20188;-62
2021/06/16 02:02:42;;;;;;;1.67;1.13;;;23.60;53.00;;;;;;5076035;28;20177;-62
2021/06/16 02:05:08;;;;;;;1.75;1.25;;;23.60;53.00;;;;;;5095071;28;20205;-62
2021/06/16 02:07:38;;;;;;;1.73;1.40;;;23.60;52.80;;;;;;5076730;28;20174;-62
2021/06/16 02:10:04;;;;;;;2.60;1.30;;;23.60;52.80;;;;;;5060152;28;20180;-62
2021/06/16 02:12:29;;;;;;;2.78;1.40;;;23.50;52.70;;;;;;5076822;28;20170;-62
2021/06/16 02:15:03;;;;;;;2.28;1.30;;;23.60;52.90;;;;;;5077119;28;20170;-62
2021/06/16 02:17:29;;;;;;;1.92;1.20;;;23.50;52.90;;;;;;5077110;28;20177;-62
2021/06/16 02:19:55;;;;;;;2.13;1.23;;;23.50;52.80;;;;;;5093796;28;20178;-62
2021/06/16 02:22:23;;;;;;;1.90;1.40;;;23.50;52.90;;;;;;5094357;28;20222;-61
2021/06/16 02:24:49;;;;;;;1.80;1.50;;;23.50;52.70;;;;;;5076088;28;20289;-61
2021/06/16 02:27:14;;;;;;;1.50;1.40;;;23.50;52.90;;;;;;5094860;28;20708;-61
2021/06/16 02:29:40;;;;;;;2.85;1.30;;;23.50;52.80;;;;;;5094255;28;20268;-61
2021/06/16 02:32:06;;;;;;;1.50;1.40;;;23.50;52.80;;;;;;5093897;28;20257;-62
2021/06/16 02:34:32;;;;;;;2.17;1.40;;;23.50;52.80;;;;;;5094217;28;20174;-62
2021/06/16 02:37:00;;;;;;;2.15;1.40;;;23.50;52.60;;;;;;5094378;28;20231;-62
2021/06/16 02:39:32;;;;;;;3.35;1.42;;;23.50;52.60;;;;;;5076067;28;20173;-61
2021/06/16 02:41:58;;;;;;;2.30;1.25;;;23.50;52.70;;;;;;5076670;28;20174;-61
2021/06/16 02:44:24;;;;;;;2.63;1.33;;;23.50;52.80;;;;;;5076391;28;20185;-61
2021/06/16 02:46:51;;;;;;;1.65;1.40;;;23.50;52.70;;;;;;5075656;28;20189;-62
2021/06/16 02:49:17;;;;;;;2.08;1.45;;;23.50;52.70;;;;;;5094197;28;20173;-62
2021/06/16 02:51:49;;;;;;;1.98;1.60;;;23.40;52.70;;;;;;5093183;28;20586;-62
2021/06/16 02:54:16;;;;;;;2.55;1.40;;;23.50;52.90;;;;;;5076650;28;20201;-61
2021/06/16 02:56:44;;;;;;;1.45;1.23;;;23.50;52.80;;;;;;5076136;28;20664;-62
2021/06/16 02:59:11;;;;;;;1.92;1.40;;;23.50;52.80;;;;;;5075859;28;20227;-62
2021/06/16 03:01:37;;;;;;;2.42;1.50;;;23.40;52.90;;;;;;5075563;28;20615;-62
2021/06/16 03:04:02;;;;;;;1.88;1.50;;;23.40;52.90;;;;;;5093904;28;20170;-62
2021/06/16 03:06:28;;;;;;;4.15;1.73;;;23.40;52.80;;;;;;5075281;28;20215;-62
2021/06/16 03:08:55;;;;;;;2.28;1.70;;;23.40;52.90;;;;;;5075625;28;20208;-62
2021/06/16 03:11:20;;;;;;;2.63;1.40;;;23.40;52.90;;;;;;5075900;28;20245;-62
2021/06/16 03:13:46;;;;;;;1.98;1.35;;;23.40;52.90;;;;;;5074717;28;20178;-62
2021/06/16 03:16:12;;;;;;;3.03;1.60;;;23.40;52.90;;;;;;5075851;28;20223;-62
2021/06/16 03:18:38;;;;;;;1.95;1.52;;;23.40;52.90;;;;;;5075571;28;20534;-61
2021/06/16 03:21:07;;;;;;;3.90;1.55;;;23.40;52.90;;;;;;5092889;28;20675;-62
2021/06/16 03:23:32;;;;;;;1.65;1.40;;;23.40;52.80;;;;;;5075931;28;20177;-61
2021/06/16 03:25:58;;;;;;;2.38;1.88;;;23.40;52.80;;;;;;5075491;28;20228;-61
2021/06/16 03:28:27;;;;;;;1.80;1.50;;;23.40;52.90;;;;;;5074700;28;20169;-61
2021/06/16 03:30:53;;;;;;;1.58;1.30;;;23.40;52.90;;;;;;5092983;28;20665;-61
2021/06/16 03:33:20;;;;;;;1.48;1.35;;;23.40;52.90;;;;;;5075616;28;20193;-62
2021/06/16 03:35:47;;;;;;;3.72;1.73;;;23.40;52.90;;;;;;5074428;28;20182;-61
2021/06/16 03:38:13;;;;;;;1.80;1.40;;;23.40;52.80;;;;;;5093471;28;20176;-62
2021/06/16 03:40:42;;;;;;;1.90;1.20;;;23.40;52.90;;;;;;5074946;28;20256;-61
2021/06/16 03:43:08;;;;;;;2.10;1.50;;;23.40;52.80;;;;;;5075359;28;20668;-61
2021/06/16 03:45:33;;;;;;;3.00;1.67;;;23.40;52.80;;;;;;5074849;28;20198;-62
2021/06/16 03:48:00;;;;;;;2.30;1.40;;;23.30;52.80;;;;;;5074576;28;20181;-62
2021/06/16 03:50:25;;;;;;;1.88;1.30;;;23.40;52.80;;;;;;5075638;28;20581;-62
2021/06/16 03:52:51;;;;;;;4.38;1.55;;;23.30;52.70;;;;;;5093099;28;20612;-62
2021/06/16 03:55:17;;;;;;;1.88;1.63;;;23.40;52.70;;;;;;5074538;28;20178;-62
2021/06/16 03:57:42;;;;;;;2.30;1.38;;;23.30;52.60;;;;;;5074899;28;20180;-62
2021/06/16 04:00:09;;;;;;;3.38;1.80;;;23.40;52.70;;;;;;5075002;28;20174;-61
2021/06/16 04:02:34;;;;;;;3.85;1.58;;;23.30;52.70;;;;;;5092255;28;20261;-61
2021/06/16 04:05:01;;;;;;;1.65;1.50;;;23.30;52.70;;;;;;5075167;28;20320;-62
2021/06/16 04:07:30;;;;;;;1.77;1.20;;;23.40;52.70;;;;;;5092848;28;20182;-63
2021/06/16 04:09:55;;;;;;;3.60;1.65;;;23.30;52.70;;;;;;5074781;28;20166;-62
2021/06/16 04:12:21;;;;;;;4.57;1.40;;;23.30;52.70;;;;;;5092913;28;20181;-62
2021/06/16 04:14:49;;;;;;;2.13;1.70;;;23.30;52.60;;;;;;5092502;28;20182;-62
2021/06/16 04:17:18;;;;;;;2.00;1.48;;;23.30;52.60;;;;;;5074445;28;20493;-63
2021/06/16 04:19:44;;;;;;;1.42;1.30;;;23.30;52.60;;;;;;5092699;28;20211;-62
2021/06/16 04:22:09;;;;;;;2.53;1.40;;;23.30;52.70;;;;;;5092705;28;20221;-62
2021/06/16 04:24:34;;;;;;;2.47;1.58;;;23.30;52.60;;;;;;5091685;28;20550;-62
2021/06/16 04:27:00;;;;;;;2.15;1.50;;;23.30;52.60;;;;;;5092691;28;20184;-61
2021/06/16 04:29:25;;;;;;;1.92;1.60;;;23.30;52.80;;;;;;5092853;28;20201;-62
2021/06/16 04:31:51;;;;;;;1.80;1.25;;;23.30;52.60;;;;;;5092003;28;20182;-62
2021/06/16 04:34:16;;;;;;;2.60;1.48;;;23.30;52.60;;;;;;5092857;28;20183;-62
2021/06/16 04:36:45;;;;;;;2.45;1.38;;;23.30;52.50;;;;;;5092646;28;20167;-62
2021/06/16 04:39:10;;;;;;;1.40;1.30;;;23.30;52.60;;;;;;5091940;28;20539;-61
2021/06/16 04:41:36;;;;;;;2.10;1.45;;;23.30;52.60;;;;;;5092464;28;20178;-62
2021/06/16 04:44:01;;;;;;;2.45;1.30;;;23.30;52.60;;;;;;5093611;28;20178;-61
2021/06/16 04:46:27;;;;;;;1.77;1.40;;;23.30;52.70;;;;;;5096726;28;20235;-62
2021/06/16 04:48:52;;;;;;;1.98;1.50;;;23.30;52.70;;;;;;5096475;28;20170;-62
2021/06/16 04:51:18;;;;;;;1.63;1.38;;;23.30;52.60;;;;;;5095923;28;20205;-61
2021/06/16 04:53:43;;;;;;;1.45;1.30;;;23.40;52.80;;;;;;5096088;28;20166;-62
2021/06/16 04:56:09;;;;;;;1.73;1.42;;;23.30;52.80;;;;;;5096309;28;20181;-62
2021/06/16 04:58:38;;;;;;;2.67;1.33;;;23.30;52.70;;;;;;5095461;28;20529;-61
2021/06/16 05:01:03;;;;;;;1.92;1.17;;;23.30;52.80;;;;;;5096371;28;20228;-61
2021/06/16 05:03:29;;;;;;;1.90;1.48;;;23.40;52.80;;;;;;5096472;28;20173;-61
2021/06/16 05:05:54;;;;;;;1.10;1.00;;;23.40;52.80;;;;;;5095404;28;20309;-62
2021/06/16 05:08:20;;;;;;;1.80;1.65;;;23.30;52.80;;;;;;5096391;28;20227;-62
2021/06/16 05:10:45;;;;;;;2.38;1.50;;;23.30;52.80;;;;;;5096064;28;20178;-61
2021/06/16 05:13:11;;;;;;;2.88;1.65;;;23.40;52.80;;;;;;5095368;28;20510;-62
2021/06/16 05:15:36;;;;;;;2.78;1.60;;;23.30;52.80;;;;;;5095831;28;20704;-62
2021/06/16 05:18:04;;;;;;;1.80;1.30;;;23.40;52.80;;;;;;5096130;28;20185;-62
2021/06/16 05:20:29;;;;;;;1.58;1.20;;;23.40;52.80;;;;;;5095254;28;20210;-61
2021/06/16 05:22:57;;;;;;;2.05;1.42;;;23.40;52.90;;;;;;5095743;28;20254;-61
2021/06/16 05:25:23;;;;;;;2.13;1.52;;;23.40;52.90;;;;;;5095587;28;20210;-61
2021/06/16 05:27:49;;;;;;;2.35;1.23;;;23.40;52.90;;;;;;5094629;28;20614;-61
2021/06/16 05:30:16;;;;;;;2.22;1.60;;;23.40;52.90;;;;;;5095984;28;20264;-61
2021/06/16 05:32:41;;;;;;;2.17;1.17;;;23.30;52.90;;;;;;5095417;28;20180;-61
2021/06/16 05:35:09;;;;;;;3.70;1.70;;;23.40;53.00;;;;;;5094878;28;20166;-62
2021/06/16 05:37:34;;;;;;;1.50;1.40;;;23.40;53.00;;;;;;5095459;28;20252;-62
2021/06/16 05:40:00;;;;;;;2.80;1.35;;;23.30;52.90;;;;;;5060708;28;20579;-61
2021/06/16 05:42:25;;;;;;;3.63;1.58;;;23.40;53.00;;;;;;5094709;28;20623;-61
2021/06/16 05:44:51;;;;;;;1.40;1.30;;;23.40;53.00;;;;;;5095036;28;20193;-61
2021/06/16 05:47:16;;;;;;;3.50;1.40;;;23.40;53.00;;;;;;5095226;28;20184;-61
2021/06/16 05:49:45;;;;;;;1.88;1.42;;;23.40;53.00;;;;;;5094882;28;20170;-62
2021/06/16 05:52:10;;;;;;;3.15;1.55;;;23.40;53.10;;;;;;5095464;28;20170;-62
2021/06/16 05:54:40;;;;;;;1.98;1.40;;;23.40;53.00;;;;;;5094157;28;20181;-62
2021/06/16 05:57:05;;;;;;;3.20;1.45;;;23.40;53.10;;;;;;5095549;28;20264;-62
2021/06/16 05:59:33;;;;;;;2.90;1.92;;;23.40;53.10;;;;;;5095012;28;20269;-61
2021/06/16 06:02:00;;;;;;;2.67;1.52;;;23.40;53.10;;;;;;5094666;28;20177;-62
2021/06/16 06:04:25;;;;;;;2.47;1.38;;;23.40;53.10;;;;;;5095221;28;20184;-61
2021/06/16 06:06:51;;;;;;;2.15;1.38;;;23.40;53.00;;;;;;5094604;28;20221;-62
2021/06/16 06:09:16;;;;;;;1.52;1.42;;;23.40;53.10;;;;;;5094217;28;20219;-62
2021/06/16 06:11:42;;;;;;;2.05;1.75;;;23.40;53.10;;;;;;5094732;28;20186;-62
2021/06/16 06:14:07;;;;;;;2.00;1.63;;;23.40;53.20;;;;;;5094911;28;20204;-62
2021/06/16 06:16:33;;;;;;;2.38;1.55;;;23.40;53.20;;;;;;5094022;28;20692;-62
2021/06/16 06:18:59;;;;;;;3.40;1.35;;;23.40;53.10;;;;;;5094896;28;20197;-62
2021/06/16 06:21:29;;;;;;;2.97;2.03;;;23.40;53.20;;;;;;5094795;28;20600;-62
2021/06/16 06:23:55;;;;;;;2.75;1.67;;;23.50;53.20;;;;;;5094088;28;20181;-62
2021/06/16 06:26:20;;;;;;;3.60;1.60;;;23.50;53.20;;;;;;5094735;28;20220;-64
2021/06/16 06:28:46;;;;;;;1.98;1.60;;;23.50;53.20;;;;;;5094539;28;20302;-62
2021/06/16 06:31:11;;;;;;;2.30;1.67;;;23.50;53.20;;;;;;5093872;28;20177;-62
2021/06/16 06:33:37;;;;;;;4.53;1.73;;;23.50;53.40;;;;;;5094117;28;20646;-62
2021/06/16 06:36:03;;;;;;;3.70;1.50;;;23.60;53.50;;;;;;5094485;28;20205;-62
2021/06/16 06:38:29;;;;;;;3.53;1.90;;;23.60;53.80;;;;;;5093651;28;20212;-62
2021/06/16 06:40:54;;;;;;;4.15;2.20;;;23.60;53.80;;;;;;5094400;28;20181;-62
2021/06/16 06:43:20;;;;;;;2.25;1.90;;;23.60;53.70;;;;;;5094423;28;20227;-62
2021/06/16 06:45:45;;;;;;;5.22;1.92;;;23.60;53.80;;;;;;5093212;28;20750;-62
2021/06/16 06:48:11;;;;;;;5.32;2.20;;;23.60;53.80;;;;;;5094450;28;20165;-63
2021/06/16 06:50:39;;;;;;;2.38;1.95;;;23.50;53.70;;;;;;5093343;28;20181;-62
2021/06/16 06:53:05;;;;;;;2.72;1.85;;;23.60;53.80;;;;;;5094065;28;20169;-63
2021/06/16 06:55:30;;;;;;;2.08;1.75;;;23.60;53.80;;;;;;5093676;28;20170;-62
2021/06/16 06:57:56;;;;;;;3.90;1.95;;;23.60;53.80;;;;;;5093445;28;21016;-62
2021/06/16 07:00:22;;;;;;;2.10;1.50;;;23.60;53.80;;;;;;5094282;28;20509;-62
2021/06/16 07:02:47;;;;;;;6.80;1.65;;;23.60;53.80;;;;;;5093736;28;20193;-63
2021/06/16 07:05:13;;;;;;;3.90;1.92;;;23.60;53.90;;;;;;5093183;28;20204;-62
2021/06/16 07:07:38;;;;;;;3.45;1.98;;;23.60;54.00;;;;;;5092997;28;20227;-63
2021/06/16 07:10:04;;;;;;;3.97;1.98;;;23.60;54.00;;;;;;5093854;28;20239;-62
2021/06/16 07:12:30;;;;;;;2.55;2.15;;;23.70;54.10;;;;;;5092943;28;20587;-64
2021/06/16 07:14:55;;;;;;;2.80;1.65;;;23.70;54.00;;;;;;5093715;28;20602;-65
2021/06/16 07:17:22;;;;;;;4.20;1.90;;;23.70;54.00;;;;;;5093940;28;20177;-64
2021/06/16 07:19:48;;;;;;;2.88;2.15;;;23.70;54.10;;;;;;5092762;28;20568;-64
2021/06/16 07:22:13;;;;;;;6.18;2.38;;;23.70;54.20;;;;;;5093456;28;20723;-63
2021/06/16 07:24:39;;;;;;;5.47;1.88;;;23.70;54.80;;;;;;5093142;28;20174;-64
2021/06/16 07:27:07;;;;;;;4.22;2.53;;;23.70;54.20;;;;;;5092979;28;20667;-64
2021/06/16 07:29:36;;;;;;;4.18;2.00;;;23.80;54.30;;;;;;5092416;28;20182;-64
2021/06/16 07:32:01;;;;;;;2.53;1.95;;;23.80;54.30;;;;;;5093620;28;20177;-63
2021/06/16 07:34:27;;;;;;;3.95;2.03;;;23.80;54.40;;;;;;5092807;28;20171;-64
2021/06/16 07:36:54;;;;;;;3.53;2.10;;;23.70;54.30;;;;;;5092967;28;20526;-65
2021/06/16 07:39:19;;;;;;;4.78;2.00;;;23.80;54.40;;;;;;5093517;28;20185;-65
2021/06/16 07:41:45;;;;;;;4.43;2.20;;;23.80;54.40;;;;;;5092364;28;20174;-65
2021/06/16 07:44:10;;;;;;;2.45;2.25;;;23.80;54.40;;;;;;5093539;28;20178;-66
2021/06/16 07:46:36;;;;;;;3.33;1.63;;;23.80;54.40;;;;;;5075006;28;20224;-65
2021/06/16 07:49:01;;;;;;;3.20;1.85;;;23.90;54.40;;;;;;5092693;28;20174;-62
2021/06/16 07:51:27;;;;;;;4.18;2.05;;;23.90;54.40;;;;;;5093139;28;20563;-62
2021/06/16 07:53:52;;;;;;;3.80;1.90;;;23.80;54.40;;;;;;5092426;28;20174;-66
2021/06/16 07:56:18;;;;;;;5.03;1.90;;;23.80;54.40;;;;;;5092928;28;20166;-66
2021/06/16 07:58:43;;;;;;;1.95;1.75;;;23.80;54.40;;;;;;5092951;28;20177;-65
2021/06/16 08:01:09;;;;;;;2.95;1.85;;;23.90;54.50;;;;;;5092357;28;20173;-66
2021/06/16 08:03:34;;;;;;;3.88;1.60;;;23.90;54.40;;;;;;5093024;28;20177;-66
2021/06/16 08:06:00;;;;;;;4.65;2.40;;;23.90;54.30;;;;;;5092715;28;20575;-67
2021/06/16 08:08:26;;;;;;;3.30;1.80;;;23.90;54.30;;;;;;5092537;28;20253;-66
2021/06/16 08:10:51;;;;;;;3.20;1.70;;;23.90;54.30;;;;;;5092779;28;20693;-66
2021/06/16 08:13:17;;;;;;;5.05;1.80;;;23.90;54.40;;;;;;5092971;28;20170;-66
2021/06/16 08:15:43;;;;;;;3.70;2.20;;;24.00;54.40;;;;;;5091993;28;20173;-66
2021/06/16 08:18:08;;;;;;;2.90;1.88;;;24.00;54.30;;;;;;5094687;28;20193;-66
2021/06/16 08:20:35;;;;;;;3.00;1.88;;;23.90;55.00;;;;;;5096723;28;20173;-64
2021/06/16 08:23:00;;;;;;;3.78;1.70;;;24.00;54.40;;;;;;5096262;28;20304;-62
2021/06/16 08:25:26;;;;;;;2.90;1.88;;;23.90;54.30;;;;;;5096704;28;20304;-62
2021/06/16 08:27:51;;;;;;;2.28;1.60;;;24.00;54.30;;;;;;5096566;28;20181;-61
2021/06/16 08:30:17;;;;;;;3.65;2.05;;;23.90;54.30;;;;;;5095716;28;20564;-62
2021/06/16 08:32:43;;;;;;;3.70;1.95;;;24.00;54.30;;;;;;5096652;28;20181;-64
2021/06/16 08:35:09;;;;;;;3.85;1.70;;;24.00;54.20;;;;;;5096705;28;20185;-63
2021/06/16 08:37:35;;;;;;;4.68;1.88;;;24.00;54.20;;;;;;5095914;28;20185;-63
2021/06/16 08:40:01;;;;;;;3.05;1.95;;;24.00;54.20;;;;;;5096709;28;20647;-63
2021/06/16 08:42:27;;;;;;;2.15;1.58;;;24.10;54.20;;;;;;5096931;28;20192;-63
2021/06/16 08:44:53;;;;;;;4.25;1.92;;;24.00;54.10;;;;;;5095839;28;20170;-63
2021/06/16 08:47:23;;;;;;;2.75;1.95;;;24.00;54.10;;;;;;5096688;28;20551;-62
2021/06/16 08:49:48;;;;;;;2.90;1.98;;;24.10;54.10;;;;;;5096165;28;20177;-62
2021/06/16 08:52:14;;;;;;;3.97;1.65;;;24.10;54.10;;;;;;5096080;28;20185;-62
2021/06/16 08:54:40;;;;;;;2.28;1.48;;;24.10;54.10;;;;;;5096090;28;20177;-62
2021/06/16 08:57:05;;;;;;;5.00;2.25;;;24.10;54.10;;;;;;5094752;28;20190;-62
2021/06/16 08:59:31;;;;;;;2.88;1.67;;;24.10;54.20;;;;;;5081293;28;20170;-62
2021/06/16 09:01:56;;;;;;;4.78;1.98;;;24.10;54.20;;;;;;5086019;28;20266;-62
2021/06/16 09:04:41;;;;;;;4.97;1.65;;;24.10;54.20;;;;;;5083392;28;20199;-62
2021/06/16 09:07:06;;;;;;;3.50;1.58;;;24.10;54.10;;;;;;5075798;28;20189;-63
2021/06/16 09:09:32;;;;;;;3.35;1.50;;;24.10;54.10;;;;;;5092245;28;20178;-61
2021/06/16 09:11:57;;;;;;;3.88;1.88;;;24.10;54.10;;;;;;5094790;28;20646;-61
2021/06/16 09:14:23;;;;;;;4.90;2.08;;;24.10;54.20;;;;;;5095967;28;20174;-61
2021/06/16 09:16:49;;;;;;;2.80;1.80;;;24.10;54.20;;;;;;5095703;28;20283;-62
2021/06/16 09:19:19;;;;;;;5.63;1.83;;;24.10;54.20;;;;;;5096298;28;20177;-61
2021/06/16 09:21:45;;;;;;;4.40;1.92;;;24.10;54.10;;;;;;5100627;28;20233;-63
2021/06/16 09:24:11;;;;;;;3.20;2.13;;;24.10;54.10;;;;;;5096019;28;20223;-61
2021/06/16 09:26:38;;;;;;;4.50;1.80;;;24.10;54.20;;;;;;5094609;28;20742;-62
2021/06/16 09:29:06;;;;;;;4.50;2.10;;;24.10;54.30;;;;;;5095112;28;20169;-61
2021/06/16 09:31:42;;;;;;;4.40;2.00;;;24.10;54.30;;;;;;5095289;28;20178;-61
2021/06/16 09:34:13;;;;;;;3.67;1.88;;;24.20;54.50;;;;;;5095039;28;20295;-61
2021/06/16 09:37:02;;;;;;;5.05;2.08;;;24.20;54.50;;;;;;5095572;28;20188;-61
2021/06/16 09:39:28;;;;;;;4.13;1.90;;;24.20;54.50;;;;;;5076922;28;20177;-61
2021/06/16 09:42:11;;;;;;;4.47;1.95;;;24.20;54.50;;;;;;5095263;28;20235;-62
2021/06/16 09:44:46;;;;;;;1.83;1.58;;;24.20;54.40;;;;;;5095172;28;20618;-62
2021/06/16 09:47:14;;;;;;;3.30;1.70;;;24.30;54.50;;;;;;5094842;28;20192;-61
2021/06/16 09:50:09;;;;;;;4.68;1.70;;;24.30;54.50;;;;;;5095166;28;20174;-62
2021/06/16 09:52:39;;;;;;;3.50;1.98;;;24.30;54.40;;;;;;5077567;28;20178;-61
2021/06/16 09:55:25;;;;;;;2.35;1.50;;;24.30;54.40;;;;;;5094889;28;20170;-61
2021/06/16 09:58:08;;;;;;;2.38;1.90;;;24.30;54.40;;;;;;5095046;28;20267;-62
2021/06/16 10:01:03;;;;;;;3.10;1.80;;;24.30;54.40;;;;;;5094294;28;20174;-62
2021/06/16 10:03:32;;;;;;;2.88;1.90;;;24.30;54.30;;;;;;5077234;28;20186;-63
2021/06/16 10:06:11;;;;;;;3.83;1.80;;;24.30;54.30;;;;;;5076819;28;20217;-63
2021/06/16 10:08:44;;;;;;;4.22;2.03;;;24.30;54.20;;;;;;5093915;28;20181;-62
2021/06/16 10:11:28;;;;;;;5.75;2.13;;;24.30;54.30;;;;;;5095162;28;20252;-62
2021/06/16 10:13:53;;;;;;;2.90;1.63;;;24.30;54.30;;;;;;5094757;28;20180;-61
2021/06/16 10:16:28;;;;;;;3.33;2.05;;;24.40;54.30;;;;;;5094130;28;20527;-62
2021/06/16 10:18:54;;;;;;;3.95;1.80;;;24.40;54.30;;;;;;5094776;28;20200;-61
2021/06/16 10:21:21;;;;;;;4.10;1.70;;;24.40;54.20;;;;;;5094544;28;20237;-62
2021/06/16 10:23:47;;;;;;;3.15;2.00;;;24.40;54.30;;;;;;5093678;28;20194;-61
2021/06/16 10:26:26;;;;;;;3.30;1.70;;;24.40;54.20;;;;;;5094433;28;20217;-62
2021/06/16 10:29:02;;;;;;;3.40;1.85;;;24.40;54.20;;;;;;5076355;28;20169;-62
2021/06/16 10:31:36;;;;;;;2.63;2.00;;;24.40;54.20;;;;;;5094718;28;20275;-62
2021/06/16 10:34:02;;;;;;;2.33;1.77;;;24.40;54.20;;;;;;5076529;28;20231;-62
2021/06/16 10:36:28;;;;;;;1.60;1.50;;;24.50;54.30;;;;;;5093902;28;20221;-61
2021/06/16 10:38:56;;;;;;;3.55;2.10;;;24.50;54.20;;;;;;5076321;28;20243;-62
2021/06/16 10:41:37;;;;;;;1.75;1.55;;;24.50;54.20;;;;;;5093215;28;20640;-62
2021/06/16 10:44:16;;;;;;;3.95;2.05;;;24.50;54.20;;;;;;5093606;28;20687;-62
2021/06/16 10:46:51;;;;;;;2.83;1.92;;;24.50;54.20;;;;;;5093766;28;20694;-62
2021/06/16 10:49:50;;;;;;;3.03;1.60;;;24.50;54.10;;;;;;5094093;28;20654;-62
2021/06/16 10:52:21;;;;;;;3.05;1.95;;;24.50;54.10;;;;;;5078944;28;20656;-62
2021/06/16 10:54:55;;;;;;;2.90;1.40;;;24.50;54.10;;;;;;5093756;28;20264;-63
2021/06/16 10:57:21;;;;;;;3.75;1.70;;;24.50;54.10;;;;;;5093464;28;20201;-62
2021/06/16 10:59:48;;;;;;;2.63;1.50;;;24.50;54.00;;;;;;5093289;28;20212;-62
2021/06/16 11:02:51;;;;;;;2.13;1.40;;;24.50;54.00;;;;;;5094002;28;20181;-62
2021/06/16 11:05:26;;;;;;;4.63;1.70;;;24.50;54.10;;;;;;5088865;28;20213;-64
2021/06/16 11:07:52;;;;;;;4.72;1.85;;;24.60;54.10;;;;;;5093586;28;20169;-63
2021/06/16 11:10:17;;;;;;;2.63;1.92;;;24.60;54.20;;;;;;5093802;28;20166;-63
2021/06/16 11:12:52;;;;;;;5.55;1.67;;;24.60;54.10;;;;;;5092431;28;20173;-61
2021/06/16 11:15:24;;;;;;;5.35;1.60;;;24.60;54.10;;;;;;5093822;28;20177;-61
2021/06/16 11:17:53;;;;;;;2.35;1.80;;;24.60;54.30;;;;;;5093417;28;20178;-61
2021/06/16 11:20:21;;;;;;;5.70;1.92;;;24.60;54.20;;;;;;5093901;28;20238;-61
2021/06/16 11:22:48;;;;;;;4.15;1.67;;;24.60;54.20;;;;;;5093106;28;20228;-63
2021/06/16 11:25:31;;;;;;;5.47;1.80;;;24.60;54.20;;;;;;5092918;28;20216;-62
2021/06/16 11:28:12;;;;;;;3.83;2.03;;;24.60;54.10;;;;;;5093690;28;20174;-63
2021/06/16 11:30:53;;;;;;;3.58;1.88;;;24.60;54.00;;;;;;5093454;28;20201;-64
2021/06/16 11:33:18;;;;;;;2.65;1.35;;;24.60;54.00;;;;;;5092891;28;20158;-65
2021/06/16 11:35:50;;;;;;;6.53;1.77;;;24.70;54.00;;;;;;5093294;28;20227;-65
2021/06/16 11:38:19;;;;;;;2.15;1.58;;;24.60;54.00;;;;;;5093309;28;20193;-65
2021/06/16 11:40:59;;;;;;;4.85;1.75;;;24.70;54.00;;;;;;5092232;28;20177;-65
2021/06/16 11:43:40;;;;;;;4.72;2.00;;;24.70;54.00;;;;;;5093239;28;20690;-66
2021/06/16 11:46:17;;;;;;;4.88;1.70;;;24.80;54.00;;;;;;5092705;28;20209;-66
2021/06/16 11:48:45;;;;;;;2.85;1.70;;;24.80;54.00;;;;;;5092909;28;20175;-66
2021/06/16 11:51:10;;;;;;;3.53;1.60;;;24.80;53.90;;;;;;5093171;28;20181;-62
2021/06/16 11:53:37;;;;;;;4.43;1.85;;;24.80;54.00;;;;;;5092113;28;20185;-62
2021/06/16 11:56:04;;;;;;;4.88;1.52;;;24.80;54.00;;;;;;5093336;28;20265;-62
2021/06/16 11:58:31;;;;;;;3.42;1.48;;;24.80;54.00;;;;;;5093060;28;20177;-62
2021/06/16 12:01:10;;;;;;;3.63;1.63;;;24.80;53.90;;;;;;5092393;28;20226;-62
2021/06/16 12:03:36;;;;;;;2.88;1.50;;;24.80;53.90;;;;;;5092659;28;20184;-62
2021/06/16 12:06:25;;;;;;;3.40;1.50;;;24.80;53.90;;;;;;5093053;28;20202;-62
2021/06/16 12:08:56;;;;;;;5.90;1.83;;;24.80;53.90;;;;;;5091952;28;20219;-62
2021/06/16 12:11:26;;;;;;;4.03;1.55;;;24.80;54.00;;;;;;5093028;28;20186;-61
2021/06/16 12:14:07;;;;;;;3.28;1.48;;;24.90;53.80;;;;;;5092534;28;20184;-61
2021/06/16 12:16:35;;;;;;;2.42;1.92;;;24.90;53.80;;;;;;5092585;28;20177;-61
2021/06/16 12:19:20;;;;;;;3.20;1.60;;;25.00;53.80;;;;;;5092887;28;20631;-61
2021/06/16 12:22:03;;;;;;;3.70;1.73;;;25.00;53.70;;;;;;5091792;28;20229;-61
2021/06/16 12:24:39;;;;;;;2.63;1.58;;;25.10;53.70;;;;;;5092755;28;20178;-61
2021/06/16 12:27:12;;;;;;;2.85;1.60;;;25.10;53.60;;;;;;5092802;28;20213;-61
2021/06/16 12:29:51;;;;;;;2.03;1.50;;;25.10;53.70;;;;;;5091747;28;20517;-62
2021/06/16 12:32:34;;;;;;;2.75;1.42;;;25.10;54.30;;;;;;5074936;28;20184;-62
2021/06/16 12:35:27;;;;;;;2.85;1.48;;;25.10;53.70;;;;;;5092996;28;20169;-62
2021/06/16 12:37:53;;;;;;;3.72;1.83;;;25.10;53.60;;;;;;5092631;28;20174;-62
2021/06/16 12:40:36;;;;;;;1.63;1.52;;;25.10;53.60;;;;;;5092723;28;20181;-62
2021/06/16 12:43:03;;;;;;;3.78;1.52;;;25.10;53.60;;;;;;5092028;28;20192;-62
2021/06/16 12:45:29;;;;;;;2.33;1.58;;;25.10;53.50;;;;;;5092833;28;20213;-61
2021/06/16 12:47:58;;;;;;;5.53;2.17;;;25.20;53.40;;;;;;5092770;28;20174;-62
2021/06/16 12:50:35;;;;;;;3.65;2.10;;;25.20;53.30;;;;;;5091713;28;20580;-62
2021/06/16 12:53:16;;;;;;;2.53;1.65;;;25.20;53.30;;;;;;5092610;28;20173;-62
2021/06/16 12:55:49;;;;;;;3.00;1.60;;;25.20;53.30;;;;;;5092123;28;20186;-61